sensor_id;sensor_type;location;lat;lon;timestamp;P1;durP1;ratioP1;P2;durP2;ratioP2
19887;SDS011;10106;51.332;12.336;2023-03-23T00:00:47;3.40;;;1.97;;
19887;SDS011;10106;51.332;12.336;2023-03-23T00:03:13;1.40;;;1.30;;
19887;SDS011;10106;51.332;12.336;2023-03-23T00:05:38;1.97;;;1.87;;
19887;SDS011;10106;51.332;12.336;2023-03-23T00:08:06;1.40;;;1.30;;
19887;SDS011;10106;51.332;12.336;2023-03-23T00:13:56;1.57;;;1.47;;
19887;SDS011;10106;51.332;12.336;2023-03-23T00:16:26;2.50;;;1.60;;
19887;SDS011;10106;51.332;12.336;2023-03-23T00:18:55;1.10;;;1.10;;
19887;SDS011;10106;51.332;12.336;2023-03-23T00:21:23;1.80;;;1.60;;
19887;SDS011;10106;51.332;12.336;2023-03-23T00:26:29;1.73;;;1.60;;
19887;SDS011;10106;51.332;12.336;2023-03-23T00:28:58;1.47;;;1.37;;
19887;SDS011;10106;51.332;12.336;2023-03-23T00:31:32;2.70;;;2.03;;
19887;SDS011;10106;51.332;12.336;2023-03-23T00:34:00;3.53;;;1.20;;
19887;SDS011;10106;51.332;12.336;2023-03-23T00:36:29;2.53;;;1.33;;
19887;SDS011;10106;51.332;12.336;2023-03-23T00:38:56;5.23;;;1.30;;
19887;SDS011;10106;51.332;12.336;2023-03-23T00:41:26;1.27;;;1.17;;
19887;SDS011;10106;51.332;12.336;2023-03-23T00:43:56;1.60;;;1.50;;
19887;SDS011;10106;51.332;12.336;2023-03-23T00:46:25;1.57;;;1.40;;
19887;SDS011;10106;51.332;12.336;2023-03-23T00:48:53;3.37;;;1.30;;
19887;SDS011;10106;51.332;12.336;2023-03-23T00:51:22;1.40;;;1.30;;
19887;SDS011;10106;51.332;12.336;2023-03-23T00:53:48;3.27;;;1.53;;
19887;SDS011;10106;51.332;12.336;2023-03-23T00:56:14;3.60;;;1.43;;
19887;SDS011;10106;51.332;12.336;2023-03-23T00:58:40;1.47;;;1.40;;
19887;SDS011;10106;51.332;12.336;2023-03-23T01:01:07;1.70;;;1.60;;
19887;SDS011;10106;51.332;12.336;2023-03-23T01:03:33;1.43;;;1.33;;
19887;SDS011;10106;51.332;12.336;2023-03-23T01:06:07;1.30;;;1.20;;
19887;SDS011;10106;51.332;12.336;2023-03-23T01:08:37;1.90;;;1.40;;
19887;SDS011;10106;51.332;12.336;2023-03-23T01:11:11;1.60;;;1.50;;
19887;SDS011;10106;51.332;12.336;2023-03-23T01:13:38;1.50;;;1.40;;
19887;SDS011;10106;51.332;12.336;2023-03-23T01:16:05;3.03;;;1.60;;
19887;SDS011;10106;51.332;12.336;2023-03-23T01:18:31;1.40;;;1.20;;
19887;SDS011;10106;51.332;12.336;2023-03-23T01:20:57;1.40;;;1.30;;
19887;SDS011;10106;51.332;12.336;2023-03-23T01:23:23;1.30;;;1.20;;
19887;SDS011;10106;51.332;12.336;2023-03-23T01:25:49;2.00;;;1.90;;
19887;SDS011;10106;51.332;12.336;2023-03-23T01:28:15;1.37;;;1.30;;
19887;SDS011;10106;51.332;12.336;2023-03-23T01:30:41;1.50;;;1.40;;
19887;SDS011;10106;51.332;12.336;2023-03-23T01:33:09;1.93;;;1.40;;
19887;SDS011;10106;51.332;12.336;2023-03-23T01:35:36;1.60;;;1.50;;
19887;SDS011;10106;51.332;12.336;2023-03-23T01:38:02;4.80;;;1.37;;
19887;SDS011;10106;51.332;12.336;2023-03-23T01:40:28;3.13;;;1.60;;
19887;SDS011;10106;51.332;12.336;2023-03-23T01:42:54;1.73;;;1.13;;
19887;SDS011;10106;51.332;12.336;2023-03-23T01:48:07;1.30;;;1.20;;
19887;SDS011;10106;51.332;12.336;2023-03-23T01:50:34;2.27;;;1.47;;
19887;SDS011;10106;51.332;12.336;2023-03-23T01:53:07;9.93;;;1.77;;
19887;SDS011;10106;51.332;12.336;2023-03-23T01:55:36;2.35;;;1.50;;
19887;SDS011;10106;51.332;12.336;2023-03-23T01:58:03;1.40;;;1.30;;
19887;SDS011;10106;51.332;12.336;2023-03-23T02:00:30;3.17;;;1.73;;
19887;SDS011;10106;51.332;12.336;2023-03-23T02:02:56;2.40;;;1.30;;
19887;SDS011;10106;51.332;12.336;2023-03-23T02:05:27;2.03;;;1.20;;
19887;SDS011;10106;51.332;12.336;2023-03-23T02:07:57;2.10;;;1.43;;
19887;SDS011;10106;51.332;12.336;2023-03-23T02:10:28;1.00;;;1.00;;
19887;SDS011;10106;51.332;12.336;2023-03-23T02:12:56;1.47;;;1.10;;
19887;SDS011;10106;51.332;12.336;2023-03-23T02:15:22;1.30;;;1.20;;
19887;SDS011;10106;51.332;12.336;2023-03-23T02:17:54;1.50;;;1.40;;
19887;SDS011;10106;51.332;12.336;2023-03-23T02:34:19;1.43;;;1.27;;
19887;SDS011;10106;51.332;12.336;2023-03-23T02:36:58;3.53;;;1.20;;
19887;SDS011;10106;51.332;12.336;2023-03-23T02:42:17;1.20;;;1.10;;
19887;SDS011;10106;51.332;12.336;2023-03-23T02:44:56;1.37;;;1.27;;
19887;SDS011;10106;51.332;12.336;2023-03-23T02:47:28;1.93;;;1.00;;
19887;SDS011;10106;51.332;12.336;2023-03-23T02:49:55;3.77;;;1.53;;
19887;SDS011;10106;51.332;12.336;2023-03-23T02:52:27;1.83;;;1.53;;
19887;SDS011;10106;51.332;12.336;2023-03-23T02:54:55;1.37;;;1.10;;
19887;SDS011;10106;51.332;12.336;2023-03-23T02:57:24;5.90;;;1.50;;
19887;SDS011;10106;51.332;12.336;2023-03-23T02:59:51;1.33;;;1.23;;
19887;SDS011;10106;51.332;12.336;2023-03-23T03:02:50;1.73;;;1.63;;
19887;SDS011;10106;51.332;12.336;2023-03-23T03:05:29;3.90;;;1.30;;
19887;SDS011;10106;51.332;12.336;2023-03-23T03:08:09;1.57;;;1.10;;
19887;SDS011;10106;51.332;12.336;2023-03-23T03:21:29;0.93;;;0.93;;
19887;SDS011;10106;51.332;12.336;2023-03-23T03:23:58;1.53;;;1.10;;
19887;SDS011;10106;51.332;12.336;2023-03-23T03:26:27;1.40;;;1.30;;
19887;SDS011;10106;51.332;12.336;2023-03-23T03:28:56;1.43;;;1.33;;
19887;SDS011;10106;51.332;12.336;2023-03-23T03:31:23;1.10;;;1.00;;
19887;SDS011;10106;51.332;12.336;2023-03-23T03:33:54;1.73;;;1.43;;
19887;SDS011;10106;51.332;12.336;2023-03-23T03:36:22;2.23;;;1.50;;
19887;SDS011;10106;51.332;12.336;2023-03-23T03:38:52;2.93;;;1.30;;
19887;SDS011;10106;51.332;12.336;2023-03-23T03:41:19;1.50;;;1.03;;
19887;SDS011;10106;51.332;12.336;2023-03-23T03:43:45;4.90;;;1.50;;
19887;SDS011;10106;51.332;12.336;2023-03-23T03:46:11;2.87;;;1.43;;
19887;SDS011;10106;51.332;12.336;2023-03-23T03:48:36;1.47;;;1.37;;
19887;SDS011;10106;51.332;12.336;2023-03-23T03:51:02;1.30;;;1.30;;
19887;SDS011;10106;51.332;12.336;2023-03-23T03:53:28;1.30;;;1.20;;
19887;SDS011;10106;51.332;12.336;2023-03-23T03:55:55;2.80;;;1.20;;
19887;SDS011;10106;51.332;12.336;2023-03-23T03:58:21;1.83;;;1.27;;
19887;SDS011;10106;51.332;12.336;2023-03-23T04:00:48;1.43;;;1.30;;
19887;SDS011;10106;51.332;12.336;2023-03-23T04:03:14;1.37;;;1.27;;
19887;SDS011;10106;51.332;12.336;2023-03-23T04:05:41;1.03;;;1.03;;
19887;SDS011;10106;51.332;12.336;2023-03-23T04:08:09;2.83;;;1.50;;
19887;SDS011;10106;51.332;12.336;2023-03-23T04:10:36;1.50;;;1.40;;
19887;SDS011;10106;51.332;12.336;2023-03-23T04:13:02;1.60;;;1.10;;
19887;SDS011;10106;51.332;12.336;2023-03-23T04:15:29;1.37;;;1.27;;
19887;SDS011;10106;51.332;12.336;2023-03-23T04:17:55;1.93;;;1.47;;
19887;SDS011;10106;51.332;12.336;2023-03-23T04:20:22;2.50;;;1.07;;
19887;SDS011;10106;51.332;12.336;2023-03-23T04:22:48;2.57;;;1.70;;
19887;SDS011;10106;51.332;12.336;2023-03-23T04:25:15;1.50;;;1.40;;
19887;SDS011;10106;51.332;12.336;2023-03-23T04:27:42;1.80;;;1.43;;
19887;SDS011;10106;51.332;12.336;2023-03-23T04:30:09;1.90;;;1.73;;
19887;SDS011;10106;51.332;12.336;2023-03-23T04:32:37;1.27;;;1.10;;
19887;SDS011;10106;51.332;12.336;2023-03-23T04:35:05;1.30;;;1.20;;
19887;SDS011;10106;51.332;12.336;2023-03-23T04:37:32;1.37;;;1.27;;
19887;SDS011;10106;51.332;12.336;2023-03-23T04:39:58;1.50;;;1.40;;
19887;SDS011;10106;51.332;12.336;2023-03-23T04:42:31;1.40;;;1.30;;
19887;SDS011;10106;51.332;12.336;2023-03-23T04:44:57;1.50;;;1.40;;
19887;SDS011;10106;51.332;12.336;2023-03-23T04:47:24;1.43;;;1.33;;
19887;SDS011;10106;51.332;12.336;2023-03-23T04:49:55;6.30;;;1.40;;
19887;SDS011;10106;51.332;12.336;2023-03-23T04:52:22;7.63;;;1.77;;
19887;SDS011;10106;51.332;12.336;2023-03-23T04:54:50;3.87;;;1.93;;
19887;SDS011;10106;51.332;12.336;2023-03-23T04:57:16;1.93;;;1.67;;
19887;SDS011;10106;51.332;12.336;2023-03-23T04:59:42;1.73;;;1.60;;
19887;SDS011;10106;51.332;12.336;2023-03-23T05:02:09;1.60;;;1.43;;
19887;SDS011;10106;51.332;12.336;2023-03-23T05:04:36;1.50;;;1.40;;
19887;SDS011;10106;51.332;12.336;2023-03-23T05:07:02;2.00;;;1.90;;
19887;SDS011;10106;51.332;12.336;2023-03-23T05:09:29;2.73;;;1.57;;
19887;SDS011;10106;51.332;12.336;2023-03-23T05:11:54;2.17;;;1.83;;
19887;SDS011;10106;51.332;12.336;2023-03-23T05:14:20;1.60;;;1.23;;
19887;SDS011;10106;51.332;12.336;2023-03-23T05:16:46;2.10;;;1.70;;
19887;SDS011;10106;51.332;12.336;2023-03-23T05:19:13;2.23;;;1.63;;
19887;SDS011;10106;51.332;12.336;2023-03-23T05:21:40;2.30;;;1.60;;
19887;SDS011;10106;51.332;12.336;2023-03-23T05:24:05;1.87;;;1.63;;
19887;SDS011;10106;51.332;12.336;2023-03-23T05:26:31;2.40;;;1.60;;
19887;SDS011;10106;51.332;12.336;2023-03-23T05:28:57;2.90;;;1.93;;
19887;SDS011;10106;51.332;12.336;2023-03-23T05:31:23;7.70;;;1.87;;
19887;SDS011;10106;51.332;12.336;2023-03-23T05:33:49;2.77;;;1.97;;
19887;SDS011;10106;51.332;12.336;2023-03-23T05:36:15;1.77;;;1.67;;
19887;SDS011;10106;51.332;12.336;2023-03-23T05:38:41;2.00;;;1.70;;
19887;SDS011;10106;51.332;12.336;2023-03-23T05:41:10;2.57;;;2.37;;
19887;SDS011;10106;51.332;12.336;2023-03-23T05:43:36;2.30;;;1.70;;
19887;SDS011;10106;51.332;12.336;2023-03-23T05:46:02;6.90;;;1.83;;
19887;SDS011;10106;51.332;12.336;2023-03-23T05:48:28;3.43;;;1.83;;
19887;SDS011;10106;51.332;12.336;2023-03-23T05:50:54;1.80;;;1.67;;
19887;SDS011;10106;51.332;12.336;2023-03-23T05:53:20;2.20;;;2.10;;
19887;SDS011;10106;51.332;12.336;2023-03-23T05:55:45;2.93;;;2.13;;
19887;SDS011;10106;51.332;12.336;2023-03-23T05:58:11;3.13;;;1.70;;
19887;SDS011;10106;51.332;12.336;2023-03-23T06:05:48;6.30;;;2.03;;
19887;SDS011;10106;51.332;12.336;2023-03-23T06:08:14;1.83;;;1.73;;
19887;SDS011;10106;51.332;12.336;2023-03-23T06:10:39;2.37;;;1.53;;
19887;SDS011;10106;51.332;12.336;2023-03-23T06:13:05;9.03;;;1.80;;
19887;SDS011;10106;51.332;12.336;2023-03-23T06:15:31;3.27;;;2.20;;
19887;SDS011;10106;51.332;12.336;2023-03-23T06:18:01;1.97;;;1.60;;
19887;SDS011;10106;51.332;12.336;2023-03-23T06:20:27;1.80;;;1.67;;
19887;SDS011;10106;51.332;12.336;2023-03-23T06:22:54;5.73;;;2.07;;
19887;SDS011;10106;51.332;12.336;2023-03-23T06:25:21;2.40;;;1.80;;
19887;SDS011;10106;51.332;12.336;2023-03-23T06:27:47;2.27;;;1.57;;
19887;SDS011;10106;51.332;12.336;2023-03-23T06:30:13;2.20;;;1.80;;
19887;SDS011;10106;51.332;12.336;2023-03-23T06:32:42;4.63;;;2.23;;
19887;SDS011;10106;51.332;12.336;2023-03-23T06:35:11;2.47;;;2.00;;
19887;SDS011;10106;51.332;12.336;2023-03-23T06:37:36;4.00;;;1.80;;
19887;SDS011;10106;51.332;12.336;2023-03-23T06:40:03;1.73;;;1.63;;
19887;SDS011;10106;51.332;12.336;2023-03-23T06:42:33;4.03;;;2.17;;
19887;SDS011;10106;51.332;12.336;2023-03-23T06:44:59;2.97;;;2.20;;
19887;SDS011;10106;51.332;12.336;2023-03-23T06:47:26;5.63;;;2.57;;
19887;SDS011;10106;51.332;12.336;2023-03-23T06:49:54;2.03;;;1.77;;
19887;SDS011;10106;51.332;12.336;2023-03-23T06:52:21;1.93;;;1.67;;
19887;SDS011;10106;51.332;12.336;2023-03-23T06:54:48;3.30;;;1.87;;
19887;SDS011;10106;51.332;12.336;2023-03-23T06:57:14;6.90;;;2.10;;
19887;SDS011;10106;51.332;12.336;2023-03-23T06:59:40;3.60;;;1.70;;
19887;SDS011;10106;51.332;12.336;2023-03-23T07:02:08;1.50;;;1.40;;
19887;SDS011;10106;51.332;12.336;2023-03-23T07:04:36;3.27;;;1.63;;
19887;SDS011;10106;51.332;12.336;2023-03-23T07:07:03;1.53;;;1.30;;
19887;SDS011;10106;51.332;12.336;2023-03-23T07:09:30;1.50;;;1.40;;
19887;SDS011;10106;51.332;12.336;2023-03-23T07:11:56;1.43;;;1.33;;
19887;SDS011;10106;51.332;12.336;2023-03-23T07:14:22;1.30;;;1.20;;
19887;SDS011;10106;51.332;12.336;2023-03-23T07:16:47;2.53;;;1.50;;
19887;SDS011;10106;51.332;12.336;2023-03-23T07:19:13;1.43;;;1.33;;
19887;SDS011;10106;51.332;12.336;2023-03-23T07:21:39;1.80;;;1.30;;
19887;SDS011;10106;51.332;12.336;2023-03-23T07:24:05;2.67;;;1.47;;
19887;SDS011;10106;51.332;12.336;2023-03-23T07:26:31;0.93;;;0.93;;
19887;SDS011;10106;51.332;12.336;2023-03-23T07:28:57;1.60;;;1.30;;
19887;SDS011;10106;51.332;12.336;2023-03-23T07:31:23;2.30;;;1.30;;
19887;SDS011;10106;51.332;12.336;2023-03-23T07:33:48;1.23;;;1.03;;
19887;SDS011;10106;51.332;12.336;2023-03-23T07:36:14;1.30;;;1.10;;
19887;SDS011;10106;51.332;12.336;2023-03-23T07:38:40;1.00;;;1.00;;
19887;SDS011;10106;51.332;12.336;2023-03-23T07:41:06;1.60;;;1.33;;
19887;SDS011;10106;51.332;12.336;2023-03-23T07:43:32;1.70;;;1.13;;
19887;SDS011;10106;51.332;12.336;2023-03-23T07:45:58;1.40;;;1.30;;
19887;SDS011;10106;51.332;12.336;2023-03-23T07:48:24;1.17;;;1.07;;
19887;SDS011;10106;51.332;12.336;2023-03-23T07:50:49;1.13;;;1.10;;
19887;SDS011;10106;51.332;12.336;2023-03-23T07:53:15;1.90;;;1.27;;
19887;SDS011;10106;51.332;12.336;2023-03-23T07:55:41;2.53;;;1.60;;
19887;SDS011;10106;51.332;12.336;2023-03-23T07:58:06;1.90;;;1.30;;
19887;SDS011;10106;51.332;12.336;2023-03-23T08:00:33;1.60;;;1.30;;
19887;SDS011;10106;51.332;12.336;2023-03-23T08:03:00;1.90;;;1.40;;
19887;SDS011;10106;51.332;12.336;2023-03-23T08:05:27;1.27;;;1.13;;
19887;SDS011;10106;51.332;12.336;2023-03-23T08:07:53;2.60;;;1.20;;
19887;SDS011;10106;51.332;12.336;2023-03-23T08:10:20;5.20;;;2.07;;
19887;SDS011;10106;51.332;12.336;2023-03-23T08:12:50;5.70;;;1.63;;
19887;SDS011;10106;51.332;12.336;2023-03-23T08:15:17;2.30;;;1.43;;
19887;SDS011;10106;51.332;12.336;2023-03-23T08:17:43;1.63;;;1.53;;
19887;SDS011;10106;51.332;12.336;2023-03-23T08:20:10;2.53;;;1.73;;
19887;SDS011;10106;51.332;12.336;2023-03-23T08:22:40;2.43;;;1.87;;
19887;SDS011;10106;51.332;12.336;2023-03-23T08:25:10;2.43;;;1.57;;
19887;SDS011;10106;51.332;12.336;2023-03-23T08:27:37;4.47;;;2.13;;
19887;SDS011;10106;51.332;12.336;2023-03-23T08:30:08;1.80;;;1.70;;
19887;SDS011;10106;51.332;12.336;2023-03-23T08:32:36;3.37;;;2.20;;
19887;SDS011;10106;51.332;12.336;2023-03-23T08:35:02;4.50;;;2.30;;
19887;SDS011;10106;51.332;12.336;2023-03-23T08:37:28;3.13;;;1.87;;
19887;SDS011;10106;51.332;12.336;2023-03-23T08:39:54;3.20;;;2.20;;
19887;SDS011;10106;51.332;12.336;2023-03-23T08:42:22;2.70;;;1.80;;
19887;SDS011;10106;51.332;12.336;2023-03-23T08:44:51;3.53;;;1.80;;
19887;SDS011;10106;51.332;12.336;2023-03-23T08:47:17;2.57;;;1.90;;
19887;SDS011;10106;51.332;12.336;2023-03-23T08:49:44;2.10;;;1.40;;
19887;SDS011;10106;51.332;12.336;2023-03-23T08:52:10;3.20;;;2.20;;
19887;SDS011;10106;51.332;12.336;2023-03-23T08:54:36;4.63;;;3.33;;
19887;SDS011;10106;51.332;12.336;2023-03-23T08:57:03;6.80;;;3.60;;
19887;SDS011;10106;51.332;12.336;2023-03-23T08:59:29;2.40;;;1.70;;
19887;SDS011;10106;51.332;12.336;2023-03-23T09:01:55;3.80;;;1.87;;
19887;SDS011;10106;51.332;12.336;2023-03-23T09:04:21;4.63;;;2.27;;
19887;SDS011;10106;51.332;12.336;2023-03-23T09:06:47;2.40;;;2.10;;
19887;SDS011;10106;51.332;12.336;2023-03-23T09:09:13;2.00;;;1.77;;
19887;SDS011;10106;51.332;12.336;2023-03-23T09:11:39;6.63;;;2.30;;
19887;SDS011;10106;51.332;12.336;2023-03-23T09:14:06;2.30;;;2.10;;
19887;SDS011;10106;51.332;12.336;2023-03-23T09:16:33;2.27;;;2.07;;
19887;SDS011;10106;51.332;12.336;2023-03-23T09:19:00;2.23;;;2.03;;
19887;SDS011;10106;51.332;12.336;2023-03-23T09:21:26;3.40;;;2.10;;
19887;SDS011;10106;51.332;12.336;2023-03-23T09:23:54;4.00;;;2.57;;
19887;SDS011;10106;51.332;12.336;2023-03-23T09:26:23;7.37;;;2.47;;
19887;SDS011;10106;51.332;12.336;2023-03-23T09:28:50;2.83;;;2.10;;
19887;SDS011;10106;51.332;12.336;2023-03-23T09:31:17;2.00;;;1.80;;
19887;SDS011;10106;51.332;12.336;2023-03-23T09:33:45;3.43;;;2.20;;
19887;SDS011;10106;51.332;12.336;2023-03-23T09:36:11;8.00;;;2.20;;
19887;SDS011;10106;51.332;12.336;2023-03-23T09:38:39;1.97;;;1.73;;
19887;SDS011;10106;51.332;12.336;2023-03-23T09:46:44;2.00;;;1.80;;
19887;SDS011;10106;51.332;12.336;2023-03-23T09:49:15;3.30;;;2.07;;
19887;SDS011;10106;51.332;12.336;2023-03-23T09:51:57;6.60;;;3.10;;
19887;SDS011;10106;51.332;12.336;2023-03-23T09:54:51;3.07;;;2.10;;
19887;SDS011;10106;51.332;12.336;2023-03-23T09:59:58;2.90;;;2.10;;
19887;SDS011;10106;51.332;12.336;2023-03-23T10:02:32;3.33;;;1.93;;
19887;SDS011;10106;51.332;12.336;2023-03-23T10:08:02;2.23;;;1.90;;
19887;SDS011;10106;51.332;12.336;2023-03-23T10:13:26;3.70;;;2.10;;
19887;SDS011;10106;51.332;12.336;2023-03-23T10:16:10;2.10;;;1.90;;
19887;SDS011;10106;51.332;12.336;2023-03-23T10:18:54;1.80;;;1.63;;
19887;SDS011;10106;51.332;12.336;2023-03-23T10:21:37;3.33;;;1.97;;
19887;SDS011;10106;51.332;12.336;2023-03-23T10:24:10;2.93;;;2.10;;
19887;SDS011;10106;51.332;12.336;2023-03-23T10:29:23;3.87;;;2.20;;
19887;SDS011;10106;51.332;12.336;2023-03-23T10:32:03;2.07;;;1.87;;
19887;SDS011;10106;51.332;12.336;2023-03-23T10:34:52;1.80;;;1.67;;
19887;SDS011;10106;51.332;12.336;2023-03-23T10:37:26;1.87;;;1.77;;
19887;SDS011;10106;51.332;12.336;2023-03-23T10:40:02;1.00;;;0.90;;
19887;SDS011;10106;51.332;12.336;2023-03-23T10:42:35;2.53;;;1.30;;
19887;SDS011;10106;51.332;12.336;2023-03-23T10:47:54;1.53;;;1.43;;
19887;SDS011;10106;51.332;12.336;2023-03-23T10:50:26;3.10;;;1.57;;
19887;SDS011;10106;51.332;12.336;2023-03-23T10:52:57;3.13;;;1.53;;
19887;SDS011;10106;51.332;12.336;2023-03-23T10:55:25;1.50;;;1.10;;
19887;SDS011;10106;51.332;12.336;2023-03-23T10:58:12;1.60;;;1.30;;
19887;SDS011;10106;51.332;12.336;2023-03-23T11:00:54;1.37;;;1.13;;
19887;SDS011;10106;51.332;12.336;2023-03-23T11:06:10;4.50;;;1.70;;
19887;SDS011;10106;51.332;12.336;2023-03-23T11:08:48;4.43;;;1.23;;
19887;SDS011;10106;51.332;12.336;2023-03-23T11:11:24;1.30;;;1.13;;
19887;SDS011;10106;51.332;12.336;2023-03-23T11:14:12;2.00;;;1.50;;
19887;SDS011;10106;51.332;12.336;2023-03-23T11:16:53;5.90;;;1.50;;
19887;SDS011;10106;51.332;12.336;2023-03-23T11:19:26;1.70;;;1.60;;
19887;SDS011;10106;51.332;12.336;2023-03-23T11:24:42;3.43;;;1.20;;
19887;SDS011;10106;51.332;12.336;2023-03-23T11:27:10;3.27;;;1.53;;
19887;SDS011;10106;51.332;12.336;2023-03-23T11:32:24;2.97;;;1.37;;
19887;SDS011;10106;51.332;12.336;2023-03-23T11:34:56;2.60;;;1.53;;
19887;SDS011;10106;51.332;12.336;2023-03-23T11:37:34;2.77;;;1.70;;
19887;SDS011;10106;51.332;12.336;2023-03-23T11:42:35;1.90;;;1.30;;
19887;SDS011;10106;51.332;12.336;2023-03-23T11:48:34;1.63;;;1.43;;
19887;SDS011;10106;51.332;12.336;2023-03-23T11:54:09;1.43;;;1.20;;
19887;SDS011;10106;51.332;12.336;2023-03-23T11:56:43;2.10;;;1.60;;
19887;SDS011;10106;51.332;12.336;2023-03-23T11:59:18;1.10;;;1.10;;
19887;SDS011;10106;51.332;12.336;2023-03-23T12:05:09;1.73;;;1.10;;
19887;SDS011;10106;51.332;12.336;2023-03-23T12:16:30;1.80;;;1.30;;
19887;SDS011;10106;51.332;12.336;2023-03-23T12:19:08;2.30;;;1.83;;
19887;SDS011;10106;51.332;12.336;2023-03-23T12:24:58;2.60;;;1.60;;
19887;SDS011;10106;51.332;12.336;2023-03-23T12:27:45;1.60;;;1.50;;
19887;SDS011;10106;51.332;12.336;2023-03-23T12:44:19;3.83;;;1.50;;
19887;SDS011;10106;51.332;12.336;2023-03-23T12:49:38;3.97;;;1.53;;
19887;SDS011;10106;51.332;12.336;2023-03-23T13:03:10;3.30;;;1.20;;
19887;SDS011;10106;51.332;12.336;2023-03-23T13:06:05;3.73;;;1.80;;
19887;SDS011;10106;51.332;12.336;2023-03-23T13:08:54;4.67;;;1.37;;
19887;SDS011;10106;51.332;12.336;2023-03-23T13:11:27;1.77;;;1.50;;
19887;SDS011;10106;51.332;12.336;2023-03-23T13:19:32;5.57;;;1.63;;
19887;SDS011;10106;51.332;12.336;2023-03-23T13:22:21;1.70;;;1.30;;
19887;SDS011;10106;51.332;12.336;2023-03-23T13:27:55;1.47;;;1.37;;
19887;SDS011;10106;51.332;12.336;2023-03-23T13:30:26;1.10;;;1.00;;
19887;SDS011;10106;51.332;12.336;2023-03-23T13:33:01;2.90;;;1.30;;
19887;SDS011;10106;51.332;12.336;2023-03-23T13:35:32;9.17;;;1.97;;
19887;SDS011;10106;51.332;12.336;2023-03-23T13:38:01;1.47;;;1.10;;
19887;SDS011;10106;51.332;12.336;2023-03-23T13:40:28;2.50;;;1.23;;
19887;SDS011;10106;51.332;12.336;2023-03-23T13:42:57;1.87;;;1.20;;
19887;SDS011;10106;51.332;12.336;2023-03-23T13:45:35;4.90;;;1.20;;
19887;SDS011;10106;51.332;12.336;2023-03-23T13:50:44;2.23;;;1.70;;
19887;SDS011;10106;51.332;12.336;2023-03-23T13:56:16;2.13;;;1.10;;
19887;SDS011;10106;51.332;12.336;2023-03-23T13:58:49;1.73;;;1.43;;
19887;SDS011;10106;51.332;12.336;2023-03-23T14:01:33;1.23;;;1.13;;
19887;SDS011;10106;51.332;12.336;2023-03-23T14:04:09;2.10;;;1.20;;
19887;SDS011;10106;51.332;12.336;2023-03-23T14:06:48;2.00;;;1.00;;
19887;SDS011;10106;51.332;12.336;2023-03-23T14:09:17;1.90;;;1.13;;
19887;SDS011;10106;51.332;12.336;2023-03-23T14:12:00;2.73;;;1.57;;
19887;SDS011;10106;51.332;12.336;2023-03-23T14:14:38;5.40;;;1.77;;
19887;SDS011;10106;51.332;12.336;2023-03-23T14:17:15;1.80;;;1.30;;
19887;SDS011;10106;51.332;12.336;2023-03-23T14:19:48;3.60;;;1.43;;
19887;SDS011;10106;51.332;12.336;2023-03-23T14:22:22;1.27;;;1.00;;
19887;SDS011;10106;51.332;12.336;2023-03-23T14:24:51;1.53;;;1.30;;
19887;SDS011;10106;51.332;12.336;2023-03-23T14:27:23;1.53;;;1.43;;
19887;SDS011;10106;51.332;12.336;2023-03-23T14:29:59;1.80;;;1.20;;
19887;SDS011;10106;51.332;12.336;2023-03-23T14:32:27;1.30;;;1.03;;
19887;SDS011;10106;51.332;12.336;2023-03-23T14:34:56;5.80;;;1.33;;
19887;SDS011;10106;51.332;12.336;2023-03-23T14:37:22;1.57;;;1.47;;
19887;SDS011;10106;51.332;12.336;2023-03-23T14:39:49;1.70;;;1.27;;
19887;SDS011;10106;51.332;12.336;2023-03-23T14:42:51;0.87;;;0.87;;
19887;SDS011;10106;51.332;12.336;2023-03-23T14:45:12;1.43;;;1.33;;
19887;SDS011;10106;51.332;12.336;2023-03-23T14:48:00;5.03;;;1.10;;
19887;SDS011;10106;51.332;12.336;2023-03-23T14:50:28;1.20;;;0.93;;
19887;SDS011;10106;51.332;12.336;2023-03-23T14:53:29;1.33;;;1.23;;
19887;SDS011;10106;51.332;12.336;2023-03-23T14:55:50;1.50;;;1.40;;
19887;SDS011;10106;51.332;12.336;2023-03-23T14:58:19;1.63;;;0.93;;
19887;SDS011;10106;51.332;12.336;2023-03-23T15:00:47;1.17;;;1.07;;
19887;SDS011;10106;51.332;12.336;2023-03-23T15:03:16;2.40;;;1.00;;
19887;SDS011;10106;51.332;12.336;2023-03-23T15:05:45;4.80;;;1.43;;
19887;SDS011;10106;51.332;12.336;2023-03-23T15:08:23;1.30;;;1.10;;
19887;SDS011;10106;51.332;12.336;2023-03-23T15:11:02;1.50;;;1.30;;
19887;SDS011;10106;51.332;12.336;2023-03-23T15:13:36;1.50;;;1.20;;
19887;SDS011;10106;51.332;12.336;2023-03-23T15:16:06;2.07;;;1.40;;
19887;SDS011;10106;51.332;12.336;2023-03-23T15:18:47;1.83;;;1.20;;
19887;SDS011;10106;51.332;12.336;2023-03-23T15:21:35;1.57;;;1.20;;
19887;SDS011;10106;51.332;12.336;2023-03-23T15:24:45;1.27;;;1.17;;
19887;SDS011;10106;51.332;12.336;2023-03-23T15:29:31;1.40;;;1.30;;
19887;SDS011;10106;51.332;12.336;2023-03-23T15:31:57;1.40;;;1.30;;
19887;SDS011;10106;51.332;12.336;2023-03-23T15:34:35;1.47;;;1.20;;
19887;SDS011;10106;51.332;12.336;2023-03-23T15:37:24;1.03;;;0.97;;
19887;SDS011;10106;51.332;12.336;2023-03-23T15:39:55;1.23;;;1.10;;
19887;SDS011;10106;51.332;12.336;2023-03-23T15:42:27;1.73;;;1.33;;
19887;SDS011;10106;51.332;12.336;2023-03-23T15:45:02;1.30;;;1.10;;
19887;SDS011;10106;51.332;12.336;2023-03-23T15:47:48;1.40;;;1.20;;
19887;SDS011;10106;51.332;12.336;2023-03-23T15:52:52;1.30;;;0.97;;
19887;SDS011;10106;51.332;12.336;2023-03-23T15:57:46;2.33;;;1.93;;
19887;SDS011;10106;51.332;12.336;2023-03-23T16:00:14;2.37;;;1.90;;
19887;SDS011;10106;51.332;12.336;2023-03-23T16:02:40;1.93;;;1.27;;
19887;SDS011;10106;51.332;12.336;2023-03-23T16:05:08;1.53;;;1.30;;
19887;SDS011;10106;51.332;12.336;2023-03-23T16:07:36;1.63;;;1.27;;
19887;SDS011;10106;51.332;12.336;2023-03-23T16:10:03;4.00;;;1.07;;
19887;SDS011;10106;51.332;12.336;2023-03-23T16:12:29;1.93;;;1.40;;
19887;SDS011;10106;51.332;12.336;2023-03-23T16:14:55;1.43;;;1.33;;
19887;SDS011;10106;51.332;12.336;2023-03-23T16:17:21;1.80;;;1.40;;
19887;SDS011;10106;51.332;12.336;2023-03-23T16:19:46;3.07;;;1.60;;
19887;SDS011;10106;51.332;12.336;2023-03-23T16:22:12;2.67;;;1.30;;
19887;SDS011;10106;51.332;12.336;2023-03-23T16:24:38;2.63;;;1.37;;
19887;SDS011;10106;51.332;12.336;2023-03-23T16:27:04;2.00;;;1.47;;
19887;SDS011;10106;51.332;12.336;2023-03-23T16:29:30;6.00;;;1.47;;
19887;SDS011;10106;51.332;12.336;2023-03-23T16:31:56;2.30;;;1.00;;
19887;SDS011;10106;51.332;12.336;2023-03-23T16:34:22;1.40;;;1.30;;
19887;SDS011;10106;51.332;12.336;2023-03-23T16:36:48;1.53;;;1.33;;
19887;SDS011;10106;51.332;12.336;2023-03-23T16:39:14;1.30;;;1.20;;
19887;SDS011;10106;51.332;12.336;2023-03-23T16:41:43;1.27;;;0.93;;
19887;SDS011;10106;51.332;12.336;2023-03-23T16:44:09;1.17;;;0.93;;
19887;SDS011;10106;51.332;12.336;2023-03-23T16:46:34;1.20;;;1.10;;
19887;SDS011;10106;51.332;12.336;2023-03-23T16:49:00;0.97;;;0.80;;
19887;SDS011;10106;51.332;12.336;2023-03-23T16:51:26;7.17;;;1.17;;
19887;SDS011;10106;51.332;12.336;2023-03-23T16:53:52;1.23;;;1.13;;
19887;SDS011;10106;51.332;12.336;2023-03-23T16:56:18;1.97;;;1.57;;
19887;SDS011;10106;51.332;12.336;2023-03-23T16:58:43;2.27;;;1.30;;
19887;SDS011;10106;51.332;12.336;2023-03-23T17:01:09;1.63;;;1.23;;
19887;SDS011;10106;51.332;12.336;2023-03-23T17:03:35;1.37;;;1.20;;
19887;SDS011;10106;51.332;12.336;2023-03-23T17:06:01;1.10;;;1.00;;
19887;SDS011;10106;51.332;12.336;2023-03-23T17:08:28;4.13;;;1.37;;
19887;SDS011;10106;51.332;12.336;2023-03-23T17:10:54;3.30;;;1.80;;